sensor_id;sensor_type;location;lat;lon;timestamp;P1;durP1;ratioP1;P2;durP2;ratioP2
19951;SDS011;10137;49.406;19.484;2023-06-22T00:01:05;9.43;;;4.72;;
19951;SDS011;10137;49.406;19.484;2023-06-22T00:03:32;6.45;;;4.93;;
19951;SDS011;10137;49.406;19.484;2023-06-22T00:06:00;6.68;;;5.22;;
19951;SDS011;10137;49.406;19.484;2023-06-22T00:08:26;10.43;;;5.38;;
19951;SDS011;10137;49.406;19.484;2023-06-22T00:10:55;6.78;;;4.70;;
19951;SDS011;10137;49.406;19.484;2023-06-22T00:13:22;7.35;;;4.55;;
19951;SDS011;10137;49.406;19.484;2023-06-22T00:15:49;7.60;;;4.30;;
19951;SDS011;10137;49.406;19.484;2023-06-22T00:18:15;7.28;;;4.00;;
19951;SDS011;10137;49.406;19.484;2023-06-22T00:20:45;5.35;;;3.92;;
19951;SDS011;10137;49.406;19.484;2023-06-22T00:23:11;6.78;;;4.30;;
19951;SDS011;10137;49.406;19.484;2023-06-22T00:25:42;5.28;;;4.10;;
19951;SDS011;10137;49.406;19.484;2023-06-22T00:28:10;7.13;;;4.05;;
19951;SDS011;10137;49.406;19.484;2023-06-22T00:30:37;9.75;;;4.30;;
19951;SDS011;10137;49.406;19.484;2023-06-22T00:33:04;7.20;;;4.38;;
19951;SDS011;10137;49.406;19.484;2023-06-22T00:35:32;7.80;;;4.60;;
19951;SDS011;10137;49.406;19.484;2023-06-22T00:38:00;7.03;;;4.45;;
19951;SDS011;10137;49.406;19.484;2023-06-22T00:40:29;10.82;;;4.53;;
19951;SDS011;10137;49.406;19.484;2023-06-22T00:42:56;10.38;;;4.63;;
19951;SDS011;10137;49.406;19.484;2023-06-22T00:45:25;5.88;;;3.95;;
19951;SDS011;10137;49.406;19.484;2023-06-22T00:47:52;5.90;;;4.60;;
19951;SDS011;10137;49.406;19.484;2023-06-22T00:50:27;7.38;;;4.20;;
19951;SDS011;10137;49.406;19.484;2023-06-22T00:53:01;6.15;;;4.63;;
19951;SDS011;10137;49.406;19.484;2023-06-22T00:55:33;8.63;;;4.20;;
19951;SDS011;10137;49.406;19.484;2023-06-22T00:58:03;6.35;;;4.60;;
19951;SDS011;10137;49.406;19.484;2023-06-22T01:00:36;9.35;;;4.10;;
19951;SDS011;10137;49.406;19.484;2023-06-22T01:03:03;7.45;;;4.03;;
19951;SDS011;10137;49.406;19.484;2023-06-22T01:05:34;6.72;;;4.00;;
19951;SDS011;10137;49.406;19.484;2023-06-22T01:08:06;7.40;;;4.13;;
19951;SDS011;10137;49.406;19.484;2023-06-22T01:10:43;5.95;;;4.45;;
19951;SDS011;10137;49.406;19.484;2023-06-22T01:13:16;11.45;;;4.93;;
19951;SDS011;10137;49.406;19.484;2023-06-22T01:15:53;7.82;;;4.30;;
19951;SDS011;10137;49.406;19.484;2023-06-22T01:18:26;7.95;;;4.07;;
19951;SDS011;10137;49.406;19.484;2023-06-22T01:20:58;9.18;;;4.50;;
19951;SDS011;10137;49.406;19.484;2023-06-22T01:23:29;5.57;;;4.25;;
19951;SDS011;10137;49.406;19.484;2023-06-22T01:26:04;8.00;;;4.57;;
19951;SDS011;10137;49.406;19.484;2023-06-22T01:28:45;7.25;;;3.85;;
19951;SDS011;10137;49.406;19.484;2023-06-22T01:31:16;7.03;;;4.03;;
19951;SDS011;10137;49.406;19.484;2023-06-22T01:33:45;9.00;;;4.53;;
19951;SDS011;10137;49.406;19.484;2023-06-22T01:36:17;7.55;;;3.97;;
19951;SDS011;10137;49.406;19.484;2023-06-22T01:38:44;7.60;;;4.28;;
19951;SDS011;10137;49.406;19.484;2023-06-22T01:41:13;8.63;;;4.55;;
19951;SDS011;10137;49.406;19.484;2023-06-22T01:43:41;6.78;;;4.45;;
19951;SDS011;10137;49.406;19.484;2023-06-22T01:46:10;7.38;;;4.28;;
19951;SDS011;10137;49.406;19.484;2023-06-22T01:48:38;7.18;;;4.32;;
19951;SDS011;10137;49.406;19.484;2023-06-22T01:51:07;6.40;;;4.18;;
19951;SDS011;10137;49.406;19.484;2023-06-22T01:53:34;6.25;;;4.53;;
19951;SDS011;10137;49.406;19.484;2023-06-22T01:56:01;6.03;;;4.65;;
19951;SDS011;10137;49.406;19.484;2023-06-22T01:58:28;6.00;;;4.13;;
19951;SDS011;10137;49.406;19.484;2023-06-22T02:00:58;7.05;;;4.25;;
19951;SDS011;10137;49.406;19.484;2023-06-22T02:03:31;6.75;;;4.35;;
19951;SDS011;10137;49.406;19.484;2023-06-22T02:06:02;10.30;;;4.40;;
19951;SDS011;10137;49.406;19.484;2023-06-22T02:08:32;11.50;;;4.47;;
19951;SDS011;10137;49.406;19.484;2023-06-22T02:11:04;9.13;;;4.82;;
19951;SDS011;10137;49.406;19.484;2023-06-22T02:13:33;6.85;;;4.25;;
19951;SDS011;10137;49.406;19.484;2023-06-22T02:16:00;7.30;;;4.10;;
19951;SDS011;10137;49.406;19.484;2023-06-22T02:18:28;6.47;;;4.20;;
19951;SDS011;10137;49.406;19.484;2023-06-22T02:20:56;7.18;;;4.10;;
19951;SDS011;10137;49.406;19.484;2023-06-22T02:23:24;7.15;;;3.92;;
19951;SDS011;10137;49.406;19.484;2023-06-22T02:25:52;6.43;;;3.88;;
19951;SDS011;10137;49.406;19.484;2023-06-22T02:28:19;6.57;;;3.63;;
19951;SDS011;10137;49.406;19.484;2023-06-22T02:30:46;7.70;;;3.90;;
19951;SDS011;10137;49.406;19.484;2023-06-22T02:33:18;7.15;;;4.07;;
19951;SDS011;10137;49.406;19.484;2023-06-22T02:35:45;7.03;;;4.30;;
19951;SDS011;10137;49.406;19.484;2023-06-22T02:38:16;5.32;;;3.78;;
19951;SDS011;10137;49.406;19.484;2023-06-22T02:40:44;7.75;;;4.45;;
19951;SDS011;10137;49.406;19.484;2023-06-22T02:43:13;7.40;;;4.32;;
19951;SDS011;10137;49.406;19.484;2023-06-22T02:45:40;8.90;;;3.85;;
19951;SDS011;10137;49.406;19.484;2023-06-22T02:48:07;6.60;;;3.75;;
19951;SDS011;10137;49.406;19.484;2023-06-22T02:50:34;7.72;;;4.18;;
19951;SDS011;10137;49.406;19.484;2023-06-22T02:53:01;7.43;;;3.70;;
19951;SDS011;10137;49.406;19.484;2023-06-22T02:55:29;6.10;;;3.90;;
19951;SDS011;10137;49.406;19.484;2023-06-22T02:57:57;7.97;;;3.70;;
19951;SDS011;10137;49.406;19.484;2023-06-22T03:00:24;6.63;;;3.75;;
19951;SDS011;10137;49.406;19.484;2023-06-22T03:02:55;7.32;;;3.70;;
19951;SDS011;10137;49.406;19.484;2023-06-22T03:05:23;8.82;;;3.92;;
19951;SDS011;10137;49.406;19.484;2023-06-22T03:07:51;8.60;;;4.13;;
19951;SDS011;10137;49.406;19.484;2023-06-22T03:10:24;5.68;;;3.70;;
19951;SDS011;10137;49.406;19.484;2023-06-22T03:12:55;5.57;;;3.90;;
19951;SDS011;10137;49.406;19.484;2023-06-22T03:15:22;5.40;;;3.72;;
19951;SDS011;10137;49.406;19.484;2023-06-22T03:17:50;4.90;;;3.40;;
19951;SDS011;10137;49.406;19.484;2023-06-22T03:20:18;9.05;;;4.00;;
19951;SDS011;10137;49.406;19.484;2023-06-22T03:22:45;6.35;;;3.58;;
19951;SDS011;10137;49.406;19.484;2023-06-22T03:25:13;6.10;;;3.35;;
19951;SDS011;10137;49.406;19.484;2023-06-22T03:27:40;8.55;;;3.92;;
19951;SDS011;10137;49.406;19.484;2023-06-22T03:30:11;7.85;;;3.63;;
19951;SDS011;10137;49.406;19.484;2023-06-22T03:32:38;5.70;;;4.00;;
19951;SDS011;10137;49.406;19.484;2023-06-22T03:35:05;9.82;;;4.20;;
19951;SDS011;10137;49.406;19.484;2023-06-22T03:37:33;5.20;;;3.53;;
19951;SDS011;10137;49.406;19.484;2023-06-22T03:40:03;8.55;;;4.30;;
19951;SDS011;10137;49.406;19.484;2023-06-22T03:42:31;4.65;;;3.50;;
19951;SDS011;10137;49.406;19.484;2023-06-22T03:44:59;6.50;;;3.83;;
19951;SDS011;10137;49.406;19.484;2023-06-22T03:47:28;8.65;;;3.92;;
19951;SDS011;10137;49.406;19.484;2023-06-22T03:49:55;7.40;;;3.83;;
19951;SDS011;10137;49.406;19.484;2023-06-22T03:52:22;7.22;;;3.95;;
19951;SDS011;10137;49.406;19.484;2023-06-22T03:54:50;7.85;;;3.88;;
19951;SDS011;10137;49.406;19.484;2023-06-22T03:57:17;7.78;;;3.55;;
19951;SDS011;10137;49.406;19.484;2023-06-22T03:59:44;6.40;;;3.38;;
19951;SDS011;10137;49.406;19.484;2023-06-22T04:02:11;6.93;;;3.92;;
19951;SDS011;10137;49.406;19.484;2023-06-22T04:04:39;6.32;;;3.53;;
19951;SDS011;10137;49.406;19.484;2023-06-22T04:07:06;7.00;;;4.13;;
19951;SDS011;10137;49.406;19.484;2023-06-22T04:09:35;6.50;;;4.45;;
19951;SDS011;10137;49.406;19.484;2023-06-22T04:12:03;7.22;;;4.50;;
19951;SDS011;10137;49.406;19.484;2023-06-22T04:14:30;9.15;;;4.10;;
19951;SDS011;10137;49.406;19.484;2023-06-22T04:16:58;8.07;;;4.60;;
19951;SDS011;10137;49.406;19.484;2023-06-22T04:19:25;6.40;;;3.83;;
19951;SDS011;10137;49.406;19.484;2023-06-22T04:21:59;6.80;;;3.92;;
19951;SDS011;10137;49.406;19.484;2023-06-22T04:24:27;6.65;;;3.70;;
19951;SDS011;10137;49.406;19.484;2023-06-22T04:26:56;8.00;;;3.97;;
19951;SDS011;10137;49.406;19.484;2023-06-22T04:29:23;6.78;;;4.10;;
19951;SDS011;10137;49.406;19.484;2023-06-22T04:31:55;17.25;;;4.10;;
19951;SDS011;10137;49.406;19.484;2023-06-22T04:34:24;7.30;;;3.50;;
19951;SDS011;10137;49.406;19.484;2023-06-22T04:36:56;7.45;;;3.78;;
19951;SDS011;10137;49.406;19.484;2023-06-22T04:39:24;5.70;;;3.72;;
19951;SDS011;10137;49.406;19.484;2023-06-22T04:41:52;7.43;;;3.80;;
19951;SDS011;10137;49.406;19.484;2023-06-22T04:44:26;5.70;;;3.40;;
19951;SDS011;10137;49.406;19.484;2023-06-22T04:46:54;8.93;;;3.45;;
19951;SDS011;10137;49.406;19.484;2023-06-22T04:49:25;5.47;;;3.33;;
19951;SDS011;10137;49.406;19.484;2023-06-22T04:51:59;7.22;;;3.67;;
19951;SDS011;10137;49.406;19.484;2023-06-22T04:54:28;7.60;;;3.30;;
19951;SDS011;10137;49.406;19.484;2023-06-22T04:57:00;4.93;;;3.13;;
19951;SDS011;10137;49.406;19.484;2023-06-22T04:59:29;13.65;;;3.90;;
19951;SDS011;10137;49.406;19.484;2023-06-22T05:01:57;6.05;;;3.55;;
19951;SDS011;10137;49.406;19.484;2023-06-22T05:04:25;11.48;;;4.05;;
19951;SDS011;10137;49.406;19.484;2023-06-22T05:06:53;8.50;;;3.95;;
19951;SDS011;10137;49.406;19.484;2023-06-22T05:09:22;7.47;;;3.63;;
19951;SDS011;10137;49.406;19.484;2023-06-22T05:11:50;8.80;;;3.70;;
19951;SDS011;10137;49.406;19.484;2023-06-22T05:14:18;8.38;;;4.00;;
19951;SDS011;10137;49.406;19.484;2023-06-22T05:16:45;6.63;;;3.67;;
19951;SDS011;10137;49.406;19.484;2023-06-22T05:19:14;7.90;;;3.20;;
19951;SDS011;10137;49.406;19.484;2023-06-22T05:21:42;9.48;;;3.45;;
19951;SDS011;10137;49.406;19.484;2023-06-22T05:24:26;12.15;;;3.58;;
19951;SDS011;10137;49.406;19.484;2023-06-22T05:26:54;8.95;;;3.75;;
19951;SDS011;10137;49.406;19.484;2023-06-22T05:29:21;5.82;;;2.75;;
19951;SDS011;10137;49.406;19.484;2023-06-22T05:31:53;10.23;;;3.55;;
19951;SDS011;10137;49.406;19.484;2023-06-22T05:34:24;11.98;;;3.85;;
19951;SDS011;10137;49.406;19.484;2023-06-22T05:36:51;8.20;;;3.83;;
19951;SDS011;10137;49.406;19.484;2023-06-22T05:39:19;7.53;;;3.05;;
19951;SDS011;10137;49.406;19.484;2023-06-22T05:41:52;6.93;;;3.50;;
19951;SDS011;10137;49.406;19.484;2023-06-22T05:44:23;12.15;;;3.13;;
19951;SDS011;10137;49.406;19.484;2023-06-22T05:46:55;7.07;;;3.95;;
19951;SDS011;10137;49.406;19.484;2023-06-22T05:49:24;9.00;;;4.35;;
19951;SDS011;10137;49.406;19.484;2023-06-22T05:51:56;10.27;;;3.67;;
19951;SDS011;10137;49.406;19.484;2023-06-22T05:54:24;8.85;;;3.58;;
19951;SDS011;10137;49.406;19.484;2023-06-22T05:56:54;9.88;;;4.07;;
19951;SDS011;10137;49.406;19.484;2023-06-22T05:59:24;9.15;;;4.03;;
19951;SDS011;10137;49.406;19.484;2023-06-22T06:01:55;10.40;;;3.40;;
19951;SDS011;10137;49.406;19.484;2023-06-22T06:04:22;6.82;;;3.17;;
19951;SDS011;10137;49.406;19.484;2023-06-22T06:06:53;7.68;;;3.35;;
19951;SDS011;10137;49.406;19.484;2023-06-22T06:09:21;8.55;;;3.22;;
19951;SDS011;10137;49.406;19.484;2023-06-22T06:11:49;6.28;;;3.13;;
19951;SDS011;10137;49.406;19.484;2023-06-22T06:14:19;6.22;;;3.22;;
19951;SDS011;10137;49.406;19.484;2023-06-22T06:16:47;7.38;;;3.33;;
19951;SDS011;10137;49.406;19.484;2023-06-22T06:19:18;12.40;;;3.42;;
19951;SDS011;10137;49.406;19.484;2023-06-22T06:21:46;13.80;;;4.03;;
19951;SDS011;10137;49.406;19.484;2023-06-22T06:24:16;12.00;;;3.90;;
19951;SDS011;10137;49.406;19.484;2023-06-22T06:26:44;6.20;;;3.72;;
19951;SDS011;10137;49.406;19.484;2023-06-22T06:29:13;11.00;;;3.88;;
19951;SDS011;10137;49.406;19.484;2023-06-22T06:31:46;8.32;;;3.88;;
19951;SDS011;10137;49.406;19.484;2023-06-22T06:34:14;4.53;;;3.35;;
19951;SDS011;10137;49.406;19.484;2023-06-22T06:36:42;10.50;;;3.78;;
19951;SDS011;10137;49.406;19.484;2023-06-22T06:39:11;5.97;;;3.60;;
19951;SDS011;10137;49.406;19.484;2023-06-22T06:41:40;11.15;;;3.78;;
19951;SDS011;10137;49.406;19.484;2023-06-22T06:44:08;16.48;;;4.30;;
19951;SDS011;10137;49.406;19.484;2023-06-22T06:46:36;8.57;;;3.80;;
19951;SDS011;10137;49.406;19.484;2023-06-22T06:49:06;7.38;;;3.35;;
19951;SDS011;10137;49.406;19.484;2023-06-22T06:51:33;12.88;;;4.28;;
19951;SDS011;10137;49.406;19.484;2023-06-22T06:54:01;11.15;;;4.68;;
19951;SDS011;10137;49.406;19.484;2023-06-22T06:56:30;8.18;;;3.60;;
19951;SDS011;10137;49.406;19.484;2023-06-22T06:58:59;11.00;;;4.45;;
19951;SDS011;10137;49.406;19.484;2023-06-22T07:01:29;8.68;;;4.20;;
19951;SDS011;10137;49.406;19.484;2023-06-22T07:03:59;8.63;;;3.75;;
19951;SDS011;10137;49.406;19.484;2023-06-22T07:06:29;6.28;;;3.78;;
19951;SDS011;10137;49.406;19.484;2023-06-22T07:08:58;8.00;;;3.80;;
19951;SDS011;10137;49.406;19.484;2023-06-22T07:11:29;8.25;;;4.10;;
19951;SDS011;10137;49.406;19.484;2023-06-22T07:13:57;6.68;;;4.00;;
19951;SDS011;10137;49.406;19.484;2023-06-22T07:16:27;7.22;;;3.30;;
19951;SDS011;10137;49.406;19.484;2023-06-22T07:19:00;6.95;;;3.72;;
19951;SDS011;10137;49.406;19.484;2023-06-22T07:21:29;7.80;;;3.97;;
19951;SDS011;10137;49.406;19.484;2023-06-22T07:23:58;7.22;;;3.67;;
19951;SDS011;10137;49.406;19.484;2023-06-22T07:26:28;7.15;;;3.80;;
19951;SDS011;10137;49.406;19.484;2023-06-22T07:28:57;10.57;;;3.90;;
19951;SDS011;10137;49.406;19.484;2023-06-22T07:31:25;7.78;;;3.40;;
19951;SDS011;10137;49.406;19.484;2023-06-22T07:33:56;5.53;;;3.80;;
19951;SDS011;10137;49.406;19.484;2023-06-22T07:36:24;6.32;;;4.00;;
19951;SDS011;10137;49.406;19.484;2023-06-22T07:38:54;6.28;;;3.88;;
19951;SDS011;10137;49.406;19.484;2023-06-22T07:41:22;8.13;;;3.85;;
19951;SDS011;10137;49.406;19.484;2023-06-22T07:43:57;6.55;;;3.80;;
19951;SDS011;10137;49.406;19.484;2023-06-22T07:46:25;9.55;;;4.13;;
19951;SDS011;10137;49.406;19.484;2023-06-22T07:48:53;5.20;;;3.80;;
19951;SDS011;10137;49.406;19.484;2023-06-22T07:51:22;8.63;;;4.63;;
19951;SDS011;10137;49.406;19.484;2023-06-22T07:53:50;6.38;;;3.67;;
19951;SDS011;10137;49.406;19.484;2023-06-22T07:56:20;8.98;;;4.45;;
19951;SDS011;10137;49.406;19.484;2023-06-22T07:58:51;11.70;;;5.28;;
19951;SDS011;10137;49.406;19.484;2023-06-22T08:01:24;6.28;;;4.13;;
19951;SDS011;10137;49.406;19.484;2023-06-22T08:03:54;7.25;;;4.50;;
19951;SDS011;10137;49.406;19.484;2023-06-22T08:06:23;7.45;;;4.55;;
19951;SDS011;10137;49.406;19.484;2023-06-22T08:08:51;8.40;;;4.70;;
19951;SDS011;10137;49.406;19.484;2023-06-22T08:11:22;8.30;;;4.78;;
19951;SDS011;10137;49.406;19.484;2023-06-22T08:13:51;6.90;;;4.72;;
19951;SDS011;10137;49.406;19.484;2023-06-22T08:16:23;7.68;;;4.70;;
19951;SDS011;10137;49.406;19.484;2023-06-22T08:18:54;6.32;;;4.30;;
19951;SDS011;10137;49.406;19.484;2023-06-22T08:21:30;8.80;;;4.35;;
19951;SDS011;10137;49.406;19.484;2023-06-22T08:23:59;7.75;;;4.00;;
19951;SDS011;10137;49.406;19.484;2023-06-22T08:26:51;8.18;;;4.53;;
19951;SDS011;10137;49.406;19.484;2023-06-22T08:29:20;10.40;;;4.50;;
19951;SDS011;10137;49.406;19.484;2023-06-22T08:31:49;9.68;;;4.70;;
19951;SDS011;10137;49.406;19.484;2023-06-22T08:34:19;10.98;;;5.20;;
19951;SDS011;10137;49.406;19.484;2023-06-22T08:36:58;6.57;;;4.30;;
19951;SDS011;10137;49.406;19.484;2023-06-22T08:39:26;5.53;;;4.03;;
19951;SDS011;10137;49.406;19.484;2023-06-22T08:41:58;6.90;;;4.72;;
19951;SDS011;10137;49.406;19.484;2023-06-22T08:44:27;6.78;;;4.38;;
19951;SDS011;10137;49.406;19.484;2023-06-22T08:46:58;10.25;;;4.30;;
19951;SDS011;10137;49.406;19.484;2023-06-22T08:49:26;6.10;;;4.45;;
19951;SDS011;10137;49.406;19.484;2023-06-22T08:51:54;5.70;;;4.38;;
19951;SDS011;10137;49.406;19.484;2023-06-22T08:54:26;8.43;;;4.35;;
19951;SDS011;10137;49.406;19.484;2023-06-22T08:56:54;9.45;;;4.80;;
19951;SDS011;10137;49.406;19.484;2023-06-22T08:59:24;5.63;;;4.57;;
19951;SDS011;10137;49.406;19.484;2023-06-22T09:01:52;9.07;;;4.85;;
19951;SDS011;10137;49.406;19.484;2023-06-22T09:04:22;7.85;;;4.80;;
19951;SDS011;10137;49.406;19.484;2023-06-22T09:06:51;7.38;;;4.88;;
19951;SDS011;10137;49.406;19.484;2023-06-22T09:09:20;8.15;;;5.40;;
19951;SDS011;10137;49.406;19.484;2023-06-22T09:11:49;8.35;;;4.72;;
19951;SDS011;10137;49.406;19.484;2023-06-22T09:14:20;5.75;;;4.43;;
19951;SDS011;10137;49.406;19.484;2023-06-22T09:16:52;7.13;;;4.85;;
19951;SDS011;10137;49.406;19.484;2023-06-22T09:19:20;8.35;;;4.85;;
19951;SDS011;10137;49.406;19.484;2023-06-22T09:21:48;12.32;;;6.22;;
19951;SDS011;10137;49.406;19.484;2023-06-22T09:24:20;12.05;;;6.85;;
19951;SDS011;10137;49.406;19.484;2023-06-22T09:26:48;10.05;;;5.53;;
19951;SDS011;10137;49.406;19.484;2023-06-22T09:29:20;10.02;;;5.30;;
19951;SDS011;10137;49.406;19.484;2023-06-22T09:31:48;9.27;;;5.30;;
19951;SDS011;10137;49.406;19.484;2023-06-22T09:34:21;6.75;;;4.95;;
19951;SDS011;10137;49.406;19.484;2023-06-22T09:36:51;8.90;;;5.28;;
19951;SDS011;10137;49.406;19.484;2023-06-22T09:39:20;12.02;;;6.05;;
19951;SDS011;10137;49.406;19.484;2023-06-22T09:41:48;8.45;;;5.80;;
19951;SDS011;10137;49.406;19.484;2023-06-22T09:44:25;9.23;;;5.70;;
19951;SDS011;10137;49.406;19.484;2023-06-22T09:46:55;9.00;;;5.90;;
19951;SDS011;10137;49.406;19.484;2023-06-22T09:49:23;7.53;;;5.43;;
19951;SDS011;10137;49.406;19.484;2023-06-22T09:51:52;6.63;;;5.18;;
19951;SDS011;10137;49.406;19.484;2023-06-22T09:54:20;7.88;;;5.63;;
19951;SDS011;10137;49.406;19.484;2023-06-22T09:56:49;7.82;;;5.70;;
19951;SDS011;10137;49.406;19.484;2023-06-22T09:59:17;8.18;;;5.35;;
19951;SDS011;10137;49.406;19.484;2023-06-22T10:01:45;10.13;;;6.40;;
19951;SDS011;10137;49.406;19.484;2023-06-22T10:04:17;6.68;;;5.65;;
19951;SDS011;10137;49.406;19.484;2023-06-22T10:06:45;8.20;;;5.72;;
19951;SDS011;10137;49.406;19.484;2023-06-22T10:09:14;7.85;;;6.10;;
19951;SDS011;10137;49.406;19.484;2023-06-22T10:11:42;13.05;;;5.85;;
19951;SDS011;10137;49.406;19.484;2023-06-22T10:14:10;8.48;;;5.72;;
19951;SDS011;10137;49.406;19.484;2023-06-22T10:16:39;9.68;;;5.70;;
19951;SDS011;10137;49.406;19.484;2023-06-22T10:19:09;6.65;;;5.40;;
19951;SDS011;10137;49.406;19.484;2023-06-22T10:21:38;9.65;;;6.70;;
19951;SDS011;10137;49.406;19.484;2023-06-22T10:24:07;8.18;;;5.47;;
19951;SDS011;10137;49.406;19.484;2023-06-22T10:26:37;6.40;;;5.55;;
19951;SDS011;10137;49.406;19.484;2023-06-22T10:29:06;11.95;;;5.32;;
19951;SDS011;10137;49.406;19.484;2023-06-22T10:31:34;8.98;;;6.40;;
19951;SDS011;10137;49.406;19.484;2023-06-22T10:34:03;10.55;;;5.80;;
19951;SDS011;10137;49.406;19.484;2023-06-22T10:36:31;12.60;;;6.20;;
19951;SDS011;10137;49.406;19.484;2023-06-22T10:39:05;11.30;;;6.20;;
19951;SDS011;10137;49.406;19.484;2023-06-22T10:41:36;8.45;;;5.93;;
19951;SDS011;10137;49.406;19.484;2023-06-22T10:44:04;6.88;;;5.20;;
19951;SDS011;10137;49.406;19.484;2023-06-22T10:46:34;9.02;;;5.85;;
19951;SDS011;10137;49.406;19.484;2023-06-22T10:49:02;7.32;;;5.25;;
19951;SDS011;10137;49.406;19.484;2023-06-22T10:51:35;9.07;;;5.78;;
19951;SDS011;10137;49.406;19.484;2023-06-22T10:54:06;8.60;;;5.85;;
19951;SDS011;10137;49.406;19.484;2023-06-22T10:56:34;9.52;;;5.68;;
19951;SDS011;10137;49.406;19.484;2023-06-22T10:59:05;7.50;;;5.88;;
19951;SDS011;10137;49.406;19.484;2023-06-22T11:01:36;12.65;;;5.97;;
19951;SDS011;10137;49.406;19.484;2023-06-22T11:04:04;9.45;;;5.85;;
19951;SDS011;10137;49.406;19.484;2023-06-22T11:06:35;7.97;;;5.50;;
19951;SDS011;10137;49.406;19.484;2023-06-22T11:09:05;9.85;;;6.15;;
19951;SDS011;10137;49.406;19.484;2023-06-22T11:11:34;9.57;;;5.68;;
19951;SDS011;10137;49.406;19.484;2023-06-22T11:14:04;8.50;;;5.78;;
19951;SDS011;10137;49.406;19.484;2023-06-22T11:16:33;9.07;;;5.82;;
19951;SDS011;10137;49.406;19.484;2023-06-22T11:19:01;8.35;;;6.28;;
19951;SDS011;10137;49.406;19.484;2023-06-22T11:21:29;11.45;;;5.63;;
19951;SDS011;10137;49.406;19.484;2023-06-22T11:23:58;9.00;;;6.50;;
19951;SDS011;10137;49.406;19.484;2023-06-22T11:26:28;10.75;;;7.70;;
19951;SDS011;10137;49.406;19.484;2023-06-22T11:28:58;12.43;;;8.13;;
19951;SDS011;10137;49.406;19.484;2023-06-22T11:31:31;9.77;;;7.25;;
19951;SDS011;10137;49.406;19.484;2023-06-22T11:33:59;15.45;;;8.30;;
19951;SDS011;10137;49.406;19.484;2023-06-22T11:36:26;11.23;;;7.80;;
19951;SDS011;10137;49.406;19.484;2023-06-22T11:38:59;11.10;;;8.15;;
19951;SDS011;10137;49.406;19.484;2023-06-22T11:41:28;11.00;;;7.50;;
19951;SDS011;10137;49.406;19.484;2023-06-22T11:43:56;14.30;;;8.45;;
19951;SDS011;10137;49.406;19.484;2023-06-22T11:46:23;12.80;;;8.18;;
19951;SDS011;10137;49.406;19.484;2023-06-22T11:48:54;10.98;;;7.80;;
19951;SDS011;10137;49.406;19.484;2023-06-22T11:51:23;11.35;;;7.75;;
19951;SDS011;10137;49.406;19.484;2023-06-22T11:53:58;11.10;;;7.28;;
19951;SDS011;10137;49.406;19.484;2023-06-22T11:56:26;11.40;;;7.30;;
19951;SDS011;10137;49.406;19.484;2023-06-22T11:59:00;7.90;;;6.10;;
19951;SDS011;10137;49.406;19.484;2023-06-22T12:01:29;8.38;;;6.32;;
19951;SDS011;10137;49.406;19.484;2023-06-22T12:03:59;11.23;;;7.18;;
19951;SDS011;10137;49.406;19.484;2023-06-22T12:06:32;10.63;;;7.22;;
19951;SDS011;10137;49.406;19.484;2023-06-22T12:09:04;7.30;;;5.88;;
19951;SDS011;10137;49.406;19.484;2023-06-22T12:11:38;18.38;;;6.95;;
19951;SDS011;10137;49.406;19.484;2023-06-22T12:14:09;8.32;;;6.55;;
19951;SDS011;10137;49.406;19.484;2023-06-22T12:16:47;9.30;;;6.20;;
19951;SDS011;10137;49.406;19.484;2023-06-22T12:19:15;7.75;;;5.97;;
19951;SDS011;10137;49.406;19.484;2023-06-22T12:21:46;10.13;;;6.30;;
19951;SDS011;10137;49.406;19.484;2023-06-22T12:24:15;11.23;;;6.95;;
19951;SDS011;10137;49.406;19.484;2023-06-22T12:26:44;8.77;;;6.40;;
19951;SDS011;10137;49.406;19.484;2023-06-22T12:29:12;8.45;;;7.10;;
19951;SDS011;10137;49.406;19.484;2023-06-22T12:31:40;11.98;;;6.93;;
19951;SDS011;10137;49.406;19.484;2023-06-22T12:34:09;6.35;;;5.65;;
19951;SDS011;10137;49.406;19.484;2023-06-22T12:36:37;10.75;;;6.60;;
19951;SDS011;10137;49.406;19.484;2023-06-22T12:39:04;9.15;;;6.63;;
19951;SDS011;10137;49.406;19.484;2023-06-22T12:41:32;8.45;;;6.40;;
19951;SDS011;10137;49.406;19.484;2023-06-22T12:44:02;7.45;;;6.65;;
19951;SDS011;10137;49.406;19.484;2023-06-22T12:46:30;12.65;;;6.75;;
19951;SDS011;10137;49.406;19.484;2023-06-22T12:49:04;8.60;;;6.43;;
19951;SDS011;10137;49.406;19.484;2023-06-22T12:51:32;9.77;;;6.60;;
19951;SDS011;10137;49.406;19.484;2023-06-22T12:54:01;8.90;;;6.57;;
19951;SDS011;10137;49.406;19.484;2023-06-22T12:56:29;8.52;;;6.25;;
19951;SDS011;10137;49.406;19.484;2023-06-22T12:58:58;11.43;;;6.50;;
19951;SDS011;10137;49.406;19.484;2023-06-22T13:01:29;12.27;;;7.70;;
19951;SDS011;10137;49.406;19.484;2023-06-22T13:03:58;9.43;;;6.82;;
19951;SDS011;10137;49.406;19.484;2023-06-22T13:06:26;9.10;;;6.88;;
19951;SDS011;10137;49.406;19.484;2023-06-22T13:08:54;8.93;;;6.30;;
19951;SDS011;10137;49.406;19.484;2023-06-22T13:11:22;8.50;;;6.30;;
19951;SDS011;10137;49.406;19.484;2023-06-22T13:13:51;8.55;;;7.18;;
19951;SDS011;10137;49.406;19.484;2023-06-22T13:16:19;9.98;;;6.97;;
19951;SDS011;10137;49.406;19.484;2023-06-22T13:18:48;11.68;;;7.43;;
19951;SDS011;10137;49.406;19.484;2023-06-22T13:21:17;8.35;;;6.10;;
19951;SDS011;10137;49.406;19.484;2023-06-22T13:23:45;9.32;;;6.45;;
19951;SDS011;10137;49.406;19.484;2023-06-22T13:26:13;9.82;;;6.40;;
19951;SDS011;10137;49.406;19.484;2023-06-22T13:28:41;14.23;;;7.03;;
19951;SDS011;10137;49.406;19.484;2023-06-22T13:31:09;9.23;;;7.15;;
19951;SDS011;10137;49.406;19.484;2023-06-22T13:33:38;7.57;;;6.38;;
19951;SDS011;10137;49.406;19.484;2023-06-22T13:36:08;11.45;;;7.78;;
19951;SDS011;10137;49.406;19.484;2023-06-22T13:38:36;11.02;;;7.18;;
19951;SDS011;10137;49.406;19.484;2023-06-22T13:41:05;11.43;;;8.18;;
19951;SDS011;10137;49.406;19.484;2023-06-22T13:43:33;11.23;;;7.78;;
19951;SDS011;10137;49.406;19.484;2023-06-22T13:46:01;9.95;;;7.15;;
19951;SDS011;10137;49.406;19.484;2023-06-22T13:48:29;13.05;;;8.23;;
19951;SDS011;10137;49.406;19.484;2023-06-22T13:50:57;14.88;;;7.50;;
19951;SDS011;10137;49.406;19.484;2023-06-22T13:53:28;13.02;;;8.30;;
19951;SDS011;10137;49.406;19.484;2023-06-22T13:55:56;9.38;;;7.72;;
19951;SDS011;10137;49.406;19.484;2023-06-22T13:58:27;9.57;;;7.80;;
19951;SDS011;10137;49.406;19.484;2023-06-22T14:00:55;9.88;;;7.88;;
19951;SDS011;10137;49.406;19.484;2023-06-22T14:03:23;14.10;;;7.82;;
19951;SDS011;10137;49.406;19.484;2023-06-22T14:05:52;13.50;;;7.25;;
19951;SDS011;10137;49.406;19.484;2023-06-22T14:08:22;10.48;;;7.47;;
19951;SDS011;10137;49.406;19.484;2023-06-22T14:10:52;9.82;;;7.55;;
19951;SDS011;10137;49.406;19.484;2023-06-22T14:13:21;10.20;;;8.05;;
19951;SDS011;10137;49.406;19.484;2023-06-22T14:15:49;11.25;;;7.63;;
19951;SDS011;10137;49.406;19.484;2023-06-22T14:18:18;11.23;;;7.90;;
19951;SDS011;10137;49.406;19.484;2023-06-22T14:20:48;12.85;;;7.70;;
19951;SDS011;10137;49.406;19.484;2023-06-22T14:23:17;9.13;;;7.30;;
19951;SDS011;10137;49.406;19.484;2023-06-22T14:25:45;11.48;;;7.93;;
19951;SDS011;10137;49.406;19.484;2023-06-22T14:28:14;12.82;;;7.93;;
19951;SDS011;10137;49.406;19.484;2023-06-22T14:30:43;10.70;;;7.20;;
19951;SDS011;10137;49.406;19.484;2023-06-22T14:33:12;15.23;;;7.68;;
19951;SDS011;10137;49.406;19.484;2023-06-22T14:35:40;10.45;;;6.80;;
19951;SDS011;10137;49.406;19.484;2023-06-22T14:38:08;12.63;;;7.00;;
19951;SDS011;10137;49.406;19.484;2023-06-22T14:40:38;9.52;;;7.00;;
19951;SDS011;10137;49.406;19.484;2023-06-22T14:43:07;9.38;;;7.38;;